DABS

Cheikh Larbi Tébessi Airport

Tébessi, Algeria
METAR DABS 162100Z 13003KT CAVOK 08/05 Q1024
Observed Flight Rules
Dec-16 @ 21:00 UTC (an hour ago) Visual Flight Rules
Wind Visibility Clouds
130° at 3 knots 10,000+ meters
  • Clear skies
Temperatures Readings
Current 8°C / 46°F
Dewpoint 5°C / 41°F
Humidity 82%
Altimeter 30.24" Hg
Pressure 1024 hPa
Elevation 813
METAR DABS 162100Z 13003KT CAVOK 08/05 Q1024
Observed Flight Rules
Dec-16 @ 21:00 UTC
(an hour ago)
VFR
Wind Visibility
130° at 3 knots 10,000+ meters
Clouds
  • Clear skies
Temperature Dewpoint
8°C / 46°F 5°C / 41°F
Humidity Altimeter Pressure
82% 30.24" Hg 1024 hPa